createdAt,value
2018-07-05T00:00:22.439Z,56.69
2018-07-05T00:02:48.444Z,56.65
2018-07-05T00:05:14.480Z,56.65
2018-07-05T00:07:40.446Z,56.65
2018-07-05T00:10:06.446Z,56.66
2018-07-05T00:12:32.450Z,56.67
2018-07-05T00:14:58.452Z,56.65
2018-07-05T00:17:24.458Z,56.65
2018-07-05T00:19:50.695Z,56.64
2018-07-05T00:22:16.690Z,56.64
2018-07-05T00:24:42.692Z,56.64
2018-07-05T00:27:08.695Z,56.64
2018-07-05T00:29:34.692Z,56.65
2018-07-05T00:32:00.695Z,56.65
2018-07-05T00:34:26.700Z,56.63
2018-07-05T00:36:52.875Z,56.62
2018-07-05T00:39:18.878Z,56.60
2018-07-05T00:41:44.885Z,56.62
2018-07-05T00:44:10.909Z,56.66
2018-07-05T00:46:36.952Z,56.65
2018-07-05T00:49:02.979Z,56.63
2018-07-05T00:51:28.958Z,56.64
2018-07-05T00:53:54.995Z,56.63
2018-07-05T00:56:20.997Z,56.64
2018-07-05T00:58:47.031Z,56.64
2018-07-05T01:01:13.035Z,56.63
2018-07-05T01:03:39.032Z,56.63
2018-07-05T01:06:05.245Z,56.64
2018-07-05T01:08:31.221Z,56.66
2018-07-05T01:10:57.229Z,56.63
2018-07-05T01:13:23.228Z,56.65
2018-07-05T01:15:49.221Z,56.63
2018-07-05T01:18:15.227Z,56.64
2018-07-05T01:20:41.223Z,56.64
2018-07-05T01:23:07.264Z,56.64
2018-07-05T01:25:33.272Z,56.62
2018-07-05T01:27:59.274Z,56.61
2018-07-05T01:30:25.285Z,56.60
2018-07-05T01:32:51.335Z,56.60
2018-07-05T01:35:17.331Z,56.61
2018-07-05T01:37:43.338Z,56.59
2018-07-05T01:40:09.339Z,56.62
2018-07-05T01:42:35.335Z,56.64
2018-07-05T01:45:01.335Z,56.60
2018-07-05T01:47:27.338Z,56.59
2018-07-05T01:49:53.341Z,56.60
2018-07-05T01:52:19.639Z,56.59
2018-07-05T01:54:45.645Z,56.59
2018-07-05T01:57:11.648Z,56.58
2018-07-05T01:59:37.645Z,56.60
2018-07-05T02:02:03.646Z,56.60
2018-07-05T02:04:29.655Z,56.59
2018-07-05T02:06:55.658Z,56.60
2018-07-05T02:09:21.656Z,56.58
2018-07-05T02:11:47.692Z,56.57
2018-07-05T02:14:13.664Z,56.58
2018-07-05T02:16:39.667Z,56.57
2018-07-05T02:19:05.664Z,56.58
2018-07-05T02:21:31.661Z,56.59
2018-07-05T02:23:57.666Z,56.58
2018-07-05T02:26:23.678Z,56.57
2018-07-05T02:28:49.676Z,56.55
2018-07-05T02:31:15.685Z,56.55
2018-07-05T02:33:41.687Z,56.57
2018-07-05T02:36:07.682Z,56.59
2018-07-05T02:38:33.699Z,56.57
2018-07-05T02:40:59.707Z,56.54
2018-07-05T02:43:25.702Z,56.54
2018-07-05T02:45:51.704Z,56.56
2018-07-05T02:48:17.710Z,56.56
2018-07-05T02:50:43.716Z,56.50
2018-07-05T02:53:09.728Z,56.54
2018-07-05T02:55:35.732Z,56.54
2018-07-05T02:58:01.726Z,56.53
2018-07-05T03:00:27.737Z,56.54
2018-07-05T03:02:53.744Z,56.54
2018-07-05T03:05:19.738Z,56.53
2018-07-05T03:07:45.746Z,56.57
2018-07-05T03:10:11.751Z,56.56
2018-07-05T03:12:37.791Z,56.53
2018-07-05T03:15:03.794Z,56.54
2018-07-05T03:17:29.795Z,56.55
2018-07-05T03:19:55.801Z,56.53
2018-07-05T03:22:21.806Z,56.52
2018-07-05T03:24:47.816Z,56.51
2018-07-05T03:27:13.817Z,56.53
2018-07-05T03:29:39.818Z,56.53
2018-07-05T03:32:05.821Z,56.50
2018-07-05T03:34:31.818Z,56.50
2018-07-05T03:36:57.825Z,56.47
2018-07-05T03:39:23.841Z,56.47
2018-07-05T03:41:49.833Z,56.46
2018-07-05T03:44:15.841Z,56.45
2018-07-05T03:46:41.843Z,56.47
2018-07-05T03:49:07.846Z,56.47
2018-07-05T03:51:33.887Z,56.46
2018-07-05T03:53:59.853Z,56.47
2018-07-05T03:56:25.935Z,56.48
2018-07-05T03:58:51.941Z,56.47
2018-07-05T04:01:17.946Z,56.45
2018-07-05T04:03:43.956Z,56.47
2018-07-05T04:06:09.954Z,56.47
2018-07-05T04:08:35.956Z,56.49
2018-07-05T04:11:01.983Z,56.47
2018-07-05T04:13:27.985Z,56.48
2018-07-05T04:15:54.439Z,56.44
2018-07-05T04:18:20.359Z,56.42
2018-07-05T04:20:46.367Z,56.44
2018-07-05T04:23:12.371Z,56.45
2018-07-05T04:25:38.374Z,56.43
2018-07-05T04:28:04.370Z,56.42
2018-07-05T04:30:30.378Z,56.41
2018-07-05T04:32:56.530Z,56.37
2018-07-05T04:35:22.536Z,56.39
2018-07-05T04:37:48.535Z,56.38
2018-07-05T04:40:14.538Z,56.38
2018-07-05T04:42:40.543Z,56.38
2018-07-05T04:45:06.597Z,56.37
2018-07-05T04:47:32.604Z,56.37
2018-07-05T04:49:58.615Z,56.35
2018-07-05T04:52:24.602Z,56.36
2018-07-05T04:54:50.602Z,56.37
2018-07-05T04:57:16.607Z,56.39
2018-07-05T04:59:42.703Z,56.38
2018-07-05T05:02:08.703Z,56.40
2018-07-05T05:04:34.705Z,56.38
2018-07-05T05:07:00.735Z,56.38
2018-07-05T05:09:26.745Z,56.38
2018-07-05T05:11:52.757Z,56.37
2018-07-05T05:14:18.911Z,56.35
2018-07-05T05:16:44.916Z,56.38
2018-07-05T05:19:10.924Z,56.38
2018-07-05T05:21:36.931Z,56.38
2018-07-05T05:24:02.940Z,56.38
2018-07-05T05:26:28.947Z,56.37
2018-07-05T05:28:54.960Z,56.36
2018-07-05T05:31:20.983Z,56.33
2018-07-05T05:33:47.006Z,56.35
2018-07-05T05:36:12.987Z,56.33
2018-07-05T05:38:39.007Z,56.34
2018-07-05T05:41:05.012Z,56.36
2018-07-05T05:43:31.014Z,56.35
2018-07-05T05:45:57.034Z,56.33
2018-07-05T05:48:23.042Z,56.35
2018-07-05T05:50:49.050Z,56.35
2018-07-05T05:53:15.080Z,56.35
2018-07-05T05:55:41.179Z,56.35
2018-07-05T05:58:07.106Z,56.37
2018-07-05T06:00:33.115Z,56.33
2018-07-05T06:02:59.129Z,56.33
2018-07-05T06:05:25.172Z,56.33
2018-07-05T06:07:51.168Z,56.31
2018-07-05T06:10:17.183Z,56.30
2018-07-05T06:12:43.204Z,56.29
2018-07-05T06:15:09.239Z,56.29
2018-07-05T06:17:35.217Z,56.30
2018-07-05T06:20:01.224Z,56.33
2018-07-05T06:22:27.225Z,56.32
2018-07-05T06:24:53.251Z,56.29
2018-07-05T06:27:19.256Z,56.29
2018-07-05T06:29:45.265Z,56.28
2018-07-05T06:32:11.278Z,56.29
2018-07-05T06:34:37.293Z,56.29
2018-07-05T06:37:03.304Z,56.26
2018-07-05T06:39:29.328Z,56.24
2018-07-05T06:41:55.326Z,56.25
2018-07-05T06:44:21.356Z,56.24
2018-07-05T06:46:47.374Z,56.23
2018-07-05T06:49:13.453Z,56.24
2018-07-05T06:51:39.377Z,56.24
2018-07-05T06:54:05.381Z,56.22
2018-07-05T06:56:31.402Z,56.19
2018-07-05T06:58:57.422Z,56.20
2018-07-05T07:01:23.423Z,56.20
2018-07-05T07:03:49.430Z,56.19
2018-07-05T07:06:15.590Z,56.19
2018-07-05T07:08:41.596Z,56.19
2018-07-05T07:11:07.610Z,56.20
2018-07-05T07:13:33.749Z,56.21
2018-07-05T07:15:59.800Z,56.23
2018-07-05T07:18:25.784Z,56.23
2018-07-05T07:20:51.792Z,56.25
2018-07-05T07:23:17.859Z,56.24
2018-07-05T07:25:43.916Z,56.24
2018-07-05T07:28:09.918Z,56.21
2018-07-05T07:30:36.847Z,56.24
2018-07-05T07:33:02.880Z,56.25
2018-07-05T07:35:29.611Z,56.27
2018-07-05T07:37:56.658Z,56.25
2018-07-05T07:40:22.990Z,56.25
2018-07-05T07:42:49.233Z,56.26
2018-07-05T07:45:15.443Z,56.26
2018-07-05T07:47:47.267Z,56.25
2018-07-05T07:50:18.048Z,56.25
2018-07-05T07:52:49.575Z,56.27
2018-07-05T07:55:13.247Z,56.26
2018-07-05T07:57:48.153Z,56.24
2018-07-05T08:00:27.217Z,56.24
2018-07-05T08:02:52.231Z,56.26
2018-07-05T08:05:21.135Z,56.24
2018-07-05T08:07:49.969Z,56.25
2018-07-05T08:10:14.195Z,56.26
2018-07-05T08:12:40.204Z,56.22
2018-07-05T08:15:06.276Z,56.23
2018-07-05T08:17:33.435Z,56.24
2018-07-05T08:20:00.850Z,56.22
2018-07-05T08:22:26.227Z,56.21
2018-07-05T08:24:53.301Z,56.21
2018-07-05T08:27:19.532Z,56.19
2018-07-05T08:29:46.771Z,56.18
2018-07-05T08:32:15.484Z,56.19
2018-07-05T08:34:41.490Z,56.20
2018-07-05T08:37:07.749Z,56.20
2018-07-05T08:39:34.381Z,56.20
2018-07-05T18:16:20.523Z,55.47
2018-07-05T18:18:46.546Z,55.49
2018-07-05T18:21:12.617Z,55.51
2018-07-05T18:23:38.664Z,55.50
2018-07-05T18:26:04.672Z,55.50
2018-07-05T18:28:30.674Z,55.52
2018-07-05T18:30:56.674Z,55.51
2018-07-05T18:33:22.681Z,55.54
2018-07-05T18:35:48.684Z,55.53
2018-07-05T18:38:14.867Z,55.56
2018-07-05T18:40:40.897Z,55.55
2018-07-05T18:43:06.838Z,55.55
2018-07-05T18:45:32.838Z,55.56
2018-07-05T18:47:59.036Z,55.59
2018-07-05T18:50:25.170Z,55.58
2018-07-05T18:52:51.196Z,55.58
2018-07-05T18:55:17.219Z,55.60
2018-07-05T18:57:43.250Z,55.63
2018-07-05T19:00:09.252Z,55.61
2018-07-05T19:02:35.390Z,55.63
2018-07-05T19:05:01.392Z,55.62
2018-07-05T19:07:27.476Z,55.63
2018-07-05T19:09:53.538Z,55.62
2018-07-05T19:12:19.630Z,55.63
2018-07-05T19:14:45.659Z,55.63
2018-07-05T19:17:11.868Z,55.64
2018-07-05T19:19:37.966Z,55.63
2018-07-05T19:22:04.120Z,55.62
2018-07-05T19:24:30.417Z,55.64
2018-07-05T19:26:56.451Z,55.62
2018-07-05T19:29:22.585Z,55.64
2018-07-05T19:31:48.629Z,55.67
2018-07-05T19:34:14.788Z,55.65
2018-07-05T19:36:40.860Z,55.68
2018-07-05T19:39:06.855Z,55.68
2018-07-05T19:41:32.954Z,55.69
2018-07-05T19:43:59.302Z,55.71
2018-07-05T19:46:25.538Z,55.71
2018-07-05T19:48:51.755Z,55.67
2018-07-05T19:51:18.004Z,55.70
2018-07-05T19:53:44.566Z,55.68
2018-07-05T19:56:10.751Z,55.67
2018-07-05T19:58:37.050Z,55.69
2018-07-05T20:01:03.108Z,55.68
2018-07-05T20:03:29.091Z,55.68
2018-07-05T20:05:55.172Z,55.68
2018-07-05T20:08:21.192Z,55.68
2018-07-05T20:10:47.241Z,55.68
2018-07-05T20:13:13.259Z,55.67
2018-07-05T20:15:39.227Z,55.67
2018-07-05T20:18:05.234Z,55.68
2018-07-05T20:20:31.264Z,55.67
2018-07-05T20:22:57.298Z,55.71
2018-07-05T20:25:23.350Z,55.72
2018-07-05T20:27:49.410Z,55.71
2018-07-05T20:30:15.473Z,55.71
2018-07-05T20:32:42.708Z,55.75
2018-07-05T20:35:07.490Z,55.75
2018-07-05T20:37:33.506Z,55.74
2018-07-05T20:39:59.504Z,55.75
2018-07-05T20:42:25.514Z,55.73
2018-07-05T20:44:51.541Z,55.74
2018-07-05T20:47:17.662Z,55.73
2018-07-05T20:49:43.858Z,55.71
2018-07-05T20:52:09.922Z,55.71
2018-07-05T20:54:35.923Z,55.72
2018-07-05T20:57:01.995Z,55.71
2018-07-05T20:59:28.001Z,55.71
2018-07-05T21:01:54.001Z,55.70
2018-07-05T21:04:20.008Z,55.69
2018-07-05T21:06:46.101Z,55.72
2018-07-05T21:09:12.247Z,55.70
2018-07-05T21:11:38.241Z,55.74
2018-07-05T21:14:04.273Z,55.74
2018-07-05T21:16:30.266Z,55.73
2018-07-05T21:18:56.263Z,55.72
2018-07-05T21:21:22.267Z,55.78
2018-07-05T21:23:48.486Z,55.76
2018-07-05T21:26:14.560Z,55.76
2018-07-05T21:28:40.758Z,55.75
2018-07-05T21:31:06.768Z,55.74
2018-07-05T21:33:32.919Z,55.75
2018-07-05T21:35:58.993Z,55.75
2018-07-05T21:38:25.045Z,55.73
2018-07-05T21:40:51.145Z,55.73
2018-07-05T21:43:17.286Z,55.71
2018-07-05T21:45:43.299Z,55.73
2018-07-05T21:48:09.304Z,55.72
2018-07-05T21:50:35.310Z,55.74
2018-07-05T21:53:01.382Z,55.74
2018-07-05T21:55:27.521Z,55.74
2018-07-05T21:57:53.518Z,55.75
2018-07-05T22:00:19.556Z,55.72
2018-07-05T22:02:45.540Z,55.71
2018-07-05T22:05:11.623Z,55.70
2018-07-05T22:07:37.633Z,55.71
2018-07-05T22:10:03.641Z,55.71
2018-07-05T22:12:29.684Z,55.73
2018-07-05T22:14:55.699Z,55.76
2018-07-05T22:17:21.866Z,55.75
2018-07-05T22:19:47.948Z,55.74
2018-07-05T22:22:13.977Z,55.73
2018-07-05T22:24:40.126Z,55.70
2018-07-05T22:27:06.205Z,55.72
2018-07-05T22:29:32.254Z,55.72
2018-07-05T22:31:58.287Z,55.72
2018-07-05T22:34:24.305Z,55.75
2018-07-05T22:36:50.461Z,55.74
2018-07-05T22:39:16.460Z,55.71
2018-07-05T22:41:42.517Z,55.71
2018-07-05T22:44:08.530Z,55.70
2018-07-05T22:46:34.649Z,55.70
2018-07-05T22:49:00.756Z,55.70
2018-07-05T22:51:26.884Z,55.70
2018-07-05T22:53:52.999Z,55.73
2018-07-05T22:56:19.026Z,55.79
2018-07-05T22:58:45.107Z,55.78
2018-07-05T23:01:11.370Z,55.74
2018-07-05T23:03:37.478Z,55.69
2018-07-05T23:06:03.558Z,55.63
2018-07-05T23:08:29.644Z,55.62
2018-07-05T23:10:55.665Z,55.61
2018-07-05T23:13:21.933Z,55.60
2018-07-05T23:15:48.263Z,55.58
2018-07-05T23:18:14.347Z,55.60
2018-07-05T23:20:40.472Z,55.60
2018-07-05T23:23:06.559Z,55.68
2018-07-05T23:25:32.683Z,55.64
2018-07-05T23:27:58.847Z,55.70
2018-07-05T23:30:25.173Z,55.71
2018-07-05T23:32:51.305Z,55.72
2018-07-05T23:35:17.395Z,55.74
2018-07-05T23:37:43.533Z,55.74
2018-07-05T23:40:09.622Z,55.71
2018-07-05T23:42:35.666Z,55.74
2018-07-05T23:45:01.709Z,55.70
2018-07-05T23:47:27.819Z,55.67
2018-07-05T23:49:53.958Z,55.64
2018-07-05T23:52:19.996Z,55.57
2018-07-05T23:54:46.091Z,55.52
2018-07-05T23:57:12.139Z,55.50
2018-07-05T23:59:38.522Z,55.55
